sensor_id;sensor_type;location;lat;lon;timestamp;P1;durP1;ratioP1;P2;durP2;ratioP2
76125;SDS011;65174;48.138;21.002;2024-01-30T00:00:21;23.80;;;10.55;;
76125;SDS011;65174;48.138;21.002;2024-01-30T00:03:22;18.20;;;9.87;;
76125;SDS011;65174;48.138;21.002;2024-01-30T00:06:24;21.57;;;10.00;;
76125;SDS011;65174;48.138;21.002;2024-01-30T00:09:26;23.30;;;10.15;;
76125;SDS011;65174;48.138;21.002;2024-01-30T00:12:28;26.77;;;12.40;;
76125;SDS011;65174;48.138;21.002;2024-01-30T00:15:30;26.88;;;13.10;;
76125;SDS011;65174;48.138;21.002;2024-01-30T00:18:32;27.77;;;11.83;;
76125;SDS011;65174;48.138;21.002;2024-01-30T00:21:34;26.63;;;11.60;;
76125;SDS011;65174;48.138;21.002;2024-01-30T00:24:36;21.58;;;10.45;;
76125;SDS011;65174;48.138;21.002;2024-01-30T00:27:37;26.15;;;10.90;;
76125;SDS011;65174;48.138;21.002;2024-01-30T00:30:39;25.98;;;12.32;;
76125;SDS011;65174;48.138;21.002;2024-01-30T00:33:41;24.53;;;13.37;;
76125;SDS011;65174;48.138;21.002;2024-01-30T00:36:43;24.67;;;11.90;;
76125;SDS011;65174;48.138;21.002;2024-01-30T00:39:45;21.30;;;11.60;;
76125;SDS011;65174;48.138;21.002;2024-01-30T00:42:47;26.67;;;11.07;;
76125;SDS011;65174;48.138;21.002;2024-01-30T00:45:49;26.40;;;12.85;;
76125;SDS011;65174;48.138;21.002;2024-01-30T00:48:52;22.70;;;11.43;;
76125;SDS011;65174;48.138;21.002;2024-01-30T00:51:54;24.37;;;10.70;;
76125;SDS011;65174;48.138;21.002;2024-01-30T00:54:55;21.25;;;9.98;;
76125;SDS011;65174;48.138;21.002;2024-01-30T00:57:57;18.10;;;8.13;;
76125;SDS011;65174;48.138;21.002;2024-01-30T01:00:59;29.35;;;9.55;;
76125;SDS011;65174;48.138;21.002;2024-01-30T01:04:01;23.53;;;10.67;;
76125;SDS011;65174;48.138;21.002;2024-01-30T01:07:04;19.50;;;9.33;;
76125;SDS011;65174;48.138;21.002;2024-01-30T01:10:06;19.23;;;8.32;;
76125;SDS011;65174;48.138;21.002;2024-01-30T01:13:08;18.33;;;8.23;;
76125;SDS011;65174;48.138;21.002;2024-01-30T01:16:10;17.33;;;8.63;;
76125;SDS011;65174;48.138;21.002;2024-01-30T01:19:12;15.50;;;7.07;;
76125;SDS011;65174;48.138;21.002;2024-01-30T01:22:14;14.27;;;7.37;;
76125;SDS011;65174;48.138;21.002;2024-01-30T01:25:16;18.73;;;7.70;;
76125;SDS011;65174;48.138;21.002;2024-01-30T01:28:18;17.95;;;8.88;;
76125;SDS011;65174;48.138;21.002;2024-01-30T01:31:20;16.55;;;7.60;;
76125;SDS011;65174;48.138;21.002;2024-01-30T01:34:26;17.83;;;7.93;;
76125;SDS011;65174;48.138;21.002;2024-01-30T01:37:31;15.03;;;7.33;;
76125;SDS011;65174;48.138;21.002;2024-01-30T01:40:33;19.05;;;8.80;;
76125;SDS011;65174;48.138;21.002;2024-01-30T01:43:35;15.65;;;7.65;;
76125;SDS011;65174;48.138;21.002;2024-01-30T01:46:37;18.13;;;8.60;;
76125;SDS011;65174;48.138;21.002;2024-01-30T01:49:39;16.10;;;7.53;;
76125;SDS011;65174;48.138;21.002;2024-01-30T01:52:41;15.87;;;8.83;;
76125;SDS011;65174;48.138;21.002;2024-01-30T01:55:43;14.50;;;7.28;;
76125;SDS011;65174;48.138;21.002;2024-01-30T01:58:45;14.93;;;7.38;;
76125;SDS011;65174;48.138;21.002;2024-01-30T02:01:47;18.90;;;8.02;;
76125;SDS011;65174;48.138;21.002;2024-01-30T02:04:52;15.67;;;7.97;;
76125;SDS011;65174;48.138;21.002;2024-01-30T02:07:54;17.53;;;7.03;;
76125;SDS011;65174;48.138;21.002;2024-01-30T02:10:57;16.88;;;8.43;;
76125;SDS011;65174;48.138;21.002;2024-01-30T02:14:03;14.30;;;8.80;;
76125;SDS011;65174;48.138;21.002;2024-01-30T02:17:05;15.00;;;7.50;;
76125;SDS011;65174;48.138;21.002;2024-01-30T02:20:07;16.47;;;7.10;;
76125;SDS011;65174;48.138;21.002;2024-01-30T02:23:09;16.40;;;8.00;;
76125;SDS011;65174;48.138;21.002;2024-01-30T02:26:12;18.02;;;8.32;;
76125;SDS011;65174;48.138;21.002;2024-01-30T02:29:14;21.27;;;10.40;;
76125;SDS011;65174;48.138;21.002;2024-01-30T02:32:15;18.80;;;8.73;;
76125;SDS011;65174;48.138;21.002;2024-01-30T02:35:17;14.43;;;7.60;;
76125;SDS011;65174;48.138;21.002;2024-01-30T02:38:19;16.73;;;8.17;;
76125;SDS011;65174;48.138;21.002;2024-01-30T02:41:21;17.65;;;7.85;;
76125;SDS011;65174;48.138;21.002;2024-01-30T02:44:23;12.98;;;7.30;;
76125;SDS011;65174;48.138;21.002;2024-01-30T02:47:25;16.85;;;8.43;;
76125;SDS011;65174;48.138;21.002;2024-01-30T02:50:27;14.23;;;7.70;;
76125;SDS011;65174;48.138;21.002;2024-01-30T02:53:28;20.63;;;7.50;;
76125;SDS011;65174;48.138;21.002;2024-01-30T02:56:30;13.48;;;8.25;;
76125;SDS011;65174;48.138;21.002;2024-01-30T02:59:32;15.63;;;8.07;;
76125;SDS011;65174;48.138;21.002;2024-01-30T03:02:37;17.25;;;8.35;;
76125;SDS011;65174;48.138;21.002;2024-01-30T03:05:39;16.30;;;8.57;;
76125;SDS011;65174;48.138;21.002;2024-01-30T03:08:41;14.17;;;7.33;;
76125;SDS011;65174;48.138;21.002;2024-01-30T03:11:42;14.10;;;6.65;;
76125;SDS011;65174;48.138;21.002;2024-01-30T03:14:44;14.18;;;7.45;;
76125;SDS011;65174;48.138;21.002;2024-01-30T03:17:46;12.63;;;7.10;;
76125;SDS011;65174;48.138;21.002;2024-01-30T03:20:48;17.73;;;8.87;;
76125;SDS011;65174;48.138;21.002;2024-01-30T03:23:50;20.13;;;10.10;;
76125;SDS011;65174;48.138;21.002;2024-01-30T03:26:52;19.05;;;8.93;;
76125;SDS011;65174;48.138;21.002;2024-01-30T03:29:53;12.07;;;6.68;;
76125;SDS011;65174;48.138;21.002;2024-01-30T03:32:55;19.85;;;8.30;;
76125;SDS011;65174;48.138;21.002;2024-01-30T03:35:57;11.17;;;6.80;;
76125;SDS011;65174;48.138;21.002;2024-01-30T03:38:59;10.87;;;5.80;;
76125;SDS011;65174;48.138;21.002;2024-01-30T03:42:01;11.35;;;5.47;;
76125;SDS011;65174;48.138;21.002;2024-01-30T03:45:02;12.75;;;6.18;;
76125;SDS011;65174;48.138;21.002;2024-01-30T03:48:05;15.63;;;5.85;;
76125;SDS011;65174;48.138;21.002;2024-01-30T03:51:07;13.00;;;5.73;;
76125;SDS011;65174;48.138;21.002;2024-01-30T03:54:09;14.23;;;5.20;;
76125;SDS011;65174;48.138;21.002;2024-01-30T03:57:11;10.20;;;5.73;;
76125;SDS011;65174;48.138;21.002;2024-01-30T04:00:14;8.68;;;5.30;;
76125;SDS011;65174;48.138;21.002;2024-01-30T04:03:16;7.68;;;4.43;;
76125;SDS011;65174;48.138;21.002;2024-01-30T04:06:18;12.02;;;5.80;;
76125;SDS011;65174;48.138;21.002;2024-01-30T04:09:19;8.85;;;5.53;;
76125;SDS011;65174;48.138;21.002;2024-01-30T04:12:21;11.07;;;6.47;;
76125;SDS011;65174;48.138;21.002;2024-01-30T04:15:23;9.52;;;4.45;;
76125;SDS011;65174;48.138;21.002;2024-01-30T04:18:25;13.45;;;7.15;;
76125;SDS011;65174;48.138;21.002;2024-01-30T04:21:27;11.20;;;5.28;;
76125;SDS011;65174;48.138;21.002;2024-01-30T04:24:29;14.70;;;6.57;;
76125;SDS011;65174;48.138;21.002;2024-01-30T04:27:30;7.83;;;4.87;;
76125;SDS011;65174;48.138;21.002;2024-01-30T04:30:32;13.68;;;6.57;;
76125;SDS011;65174;48.138;21.002;2024-01-30T04:33:34;10.85;;;6.40;;
76125;SDS011;65174;48.138;21.002;2024-01-30T04:36:36;12.25;;;6.40;;
76125;SDS011;65174;48.138;21.002;2024-01-30T04:39:38;11.70;;;6.20;;
76125;SDS011;65174;48.138;21.002;2024-01-30T04:42:39;14.10;;;7.47;;
76125;SDS011;65174;48.138;21.002;2024-01-30T04:45:41;12.60;;;7.15;;
76125;SDS011;65174;48.138;21.002;2024-01-30T04:48:43;14.70;;;7.30;;
76125;SDS011;65174;48.138;21.002;2024-01-30T04:51:45;17.55;;;8.70;;
76125;SDS011;65174;48.138;21.002;2024-01-30T04:54:47;15.55;;;7.45;;
76125;SDS011;65174;48.138;21.002;2024-01-30T04:57:49;14.63;;;8.43;;
76125;SDS011;65174;48.138;21.002;2024-01-30T05:00:51;16.85;;;8.23;;
76125;SDS011;65174;48.138;21.002;2024-01-30T05:03:53;19.00;;;9.85;;
76125;SDS011;65174;48.138;21.002;2024-01-30T05:06:55;15.65;;;8.82;;
76125;SDS011;65174;48.138;21.002;2024-01-30T05:09:57;17.98;;;8.75;;
76125;SDS011;65174;48.138;21.002;2024-01-30T05:13:01;21.33;;;9.57;;
76125;SDS011;65174;48.138;21.002;2024-01-30T05:16:03;29.23;;;11.45;;
76125;SDS011;65174;48.138;21.002;2024-01-30T05:19:07;18.65;;;10.43;;
76125;SDS011;65174;48.138;21.002;2024-01-30T05:22:09;20.77;;;9.13;;
76125;SDS011;65174;48.138;21.002;2024-01-30T05:25:12;17.08;;;8.38;;
76125;SDS011;65174;48.138;21.002;2024-01-30T05:28:14;13.37;;;7.10;;
76125;SDS011;65174;48.138;21.002;2024-01-30T05:31:16;13.50;;;7.43;;
76125;SDS011;65174;48.138;21.002;2024-01-30T05:34:18;14.20;;;6.65;;
76125;SDS011;65174;48.138;21.002;2024-01-30T05:37:20;13.40;;;7.28;;
76125;SDS011;65174;48.138;21.002;2024-01-30T05:40:22;15.88;;;8.10;;
76125;SDS011;65174;48.138;21.002;2024-01-30T05:43:24;16.53;;;7.97;;
76125;SDS011;65174;48.138;21.002;2024-01-30T05:46:26;22.45;;;8.32;;
76125;SDS011;65174;48.138;21.002;2024-01-30T06:37:50;14.30;;;7.10;;
76125;SDS011;65174;48.138;21.002;2024-01-30T06:40:51;16.90;;;7.70;;
76125;SDS011;65174;48.138;21.002;2024-01-30T06:43:53;15.75;;;8.10;;
76125;SDS011;65174;48.138;21.002;2024-01-30T06:46:55;17.27;;;8.35;;
76125;SDS011;65174;48.138;21.002;2024-01-30T06:49:57;15.07;;;7.97;;
76125;SDS011;65174;48.138;21.002;2024-01-30T06:52:59;17.92;;;7.88;;
76125;SDS011;65174;48.138;21.002;2024-01-30T06:56:01;20.70;;;9.03;;
76125;SDS011;65174;48.138;21.002;2024-01-30T06:59:04;22.10;;;9.02;;
76125;SDS011;65174;48.138;21.002;2024-01-30T07:02:06;18.35;;;9.38;;
76125;SDS011;65174;48.138;21.002;2024-01-30T07:05:09;23.70;;;10.00;;
76125;SDS011;65174;48.138;21.002;2024-01-30T07:08:11;19.50;;;9.48;;
76125;SDS011;65174;48.138;21.002;2024-01-30T07:11:22;20.37;;;10.57;;
76125;SDS011;65174;48.138;21.002;2024-01-30T07:14:25;19.88;;;10.05;;
76125;SDS011;65174;48.138;21.002;2024-01-30T07:17:27;23.23;;;11.60;;
76125;SDS011;65174;48.138;21.002;2024-01-30T07:20:29;21.58;;;10.98;;
76125;SDS011;65174;48.138;21.002;2024-01-30T07:23:32;21.45;;;11.63;;
76125;SDS011;65174;48.138;21.002;2024-01-30T07:26:35;24.67;;;14.40;;
76125;SDS011;65174;48.138;21.002;2024-01-30T07:29:37;32.88;;;15.52;;
76125;SDS011;65174;48.138;21.002;2024-01-30T07:32:39;30.35;;;13.70;;
76125;SDS011;65174;48.138;21.002;2024-01-30T07:35:41;32.60;;;15.73;;
76125;SDS011;65174;48.138;21.002;2024-01-30T07:38:43;28.88;;;13.55;;
76125;SDS011;65174;48.138;21.002;2024-01-30T07:41:44;29.73;;;13.50;;
76125;SDS011;65174;48.138;21.002;2024-01-30T07:44:46;23.02;;;12.45;;
76125;SDS011;65174;48.138;21.002;2024-01-30T07:47:48;29.85;;;14.75;;
76125;SDS011;65174;48.138;21.002;2024-01-30T07:50:51;24.85;;;12.27;;
76125;SDS011;65174;48.138;21.002;2024-01-30T07:53:52;17.10;;;9.82;;
76125;SDS011;65174;48.138;21.002;2024-01-30T07:56:54;22.77;;;11.50;;
76125;SDS011;65174;48.138;21.002;2024-01-30T07:59:56;17.48;;;10.02;;
76125;SDS011;65174;48.138;21.002;2024-01-30T08:02:59;27.17;;;12.98;;
76125;SDS011;65174;48.138;21.002;2024-01-30T08:06:01;16.73;;;9.95;;
76125;SDS011;65174;48.138;21.002;2024-01-30T08:09:03;23.33;;;12.55;;
76125;SDS011;65174;48.138;21.002;2024-01-30T08:12:06;18.17;;;11.80;;
76125;SDS011;65174;48.138;21.002;2024-01-30T08:15:08;16.65;;;9.57;;
76125;SDS011;65174;48.138;21.002;2024-01-30T08:18:10;23.65;;;13.13;;
76125;SDS011;65174;48.138;21.002;2024-01-30T08:21:12;25.23;;;10.43;;
76125;SDS011;65174;48.138;21.002;2024-01-30T08:24:14;19.35;;;10.57;;
76125;SDS011;65174;48.138;21.002;2024-01-30T08:27:16;19.20;;;9.97;;
76125;SDS011;65174;48.138;21.002;2024-01-30T08:30:19;22.23;;;10.75;;
76125;SDS011;65174;48.138;21.002;2024-01-30T08:33:20;22.55;;;11.57;;
76125;SDS011;65174;48.138;21.002;2024-01-30T08:36:22;29.70;;;13.32;;
76125;SDS011;65174;48.138;21.002;2024-01-30T08:39:24;20.48;;;11.07;;
76125;SDS011;65174;48.138;21.002;2024-01-30T08:42:26;19.93;;;10.83;;
76125;SDS011;65174;48.138;21.002;2024-01-30T08:45:30;15.93;;;9.23;;
76125;SDS011;65174;48.138;21.002;2024-01-30T08:48:35;21.10;;;10.60;;
76125;SDS011;65174;48.138;21.002;2024-01-30T08:51:37;18.88;;;9.90;;
76125;SDS011;65174;48.138;21.002;2024-01-30T08:54:39;26.10;;;13.98;;
76125;SDS011;65174;48.138;21.002;2024-01-30T08:57:41;24.50;;;11.93;;
76125;SDS011;65174;48.138;21.002;2024-01-30T09:00:43;23.08;;;12.48;;
76125;SDS011;65174;48.138;21.002;2024-01-30T09:03:45;14.30;;;9.02;;
76125;SDS011;65174;48.138;21.002;2024-01-30T09:06:48;21.98;;;11.70;;
76125;SDS011;65174;48.138;21.002;2024-01-30T09:09:50;22.10;;;10.68;;
76125;SDS011;65174;48.138;21.002;2024-01-30T09:12:52;23.80;;;11.33;;
76125;SDS011;65174;48.138;21.002;2024-01-30T09:15:54;26.33;;;13.02;;
76125;SDS011;65174;48.138;21.002;2024-01-30T09:18:57;21.08;;;11.50;;
76125;SDS011;65174;48.138;21.002;2024-01-30T09:21:59;26.73;;;13.35;;
76125;SDS011;65174;48.138;21.002;2024-01-30T09:25:01;13.73;;;9.48;;
76125;SDS011;65174;48.138;21.002;2024-01-30T09:28:03;26.73;;;13.63;;
76125;SDS011;65174;48.138;21.002;2024-01-30T09:31:09;22.23;;;13.07;;
76125;SDS011;65174;48.138;21.002;2024-01-30T09:34:11;22.58;;;10.10;;
76125;SDS011;65174;48.138;21.002;2024-01-30T09:37:13;23.88;;;13.05;;
76125;SDS011;65174;48.138;21.002;2024-01-30T09:40:17;20.98;;;11.77;;
76125;SDS011;65174;48.138;21.002;2024-01-30T09:43:21;14.00;;;7.73;;
76125;SDS011;65174;48.138;21.002;2024-01-30T09:46:27;20.92;;;10.80;;
76125;SDS011;65174;48.138;21.002;2024-01-30T09:49:32;18.75;;;10.70;;
76125;SDS011;65174;48.138;21.002;2024-01-30T09:52:35;16.02;;;9.23;;
76125;SDS011;65174;48.138;21.002;2024-01-30T09:55:37;23.70;;;12.73;;
76125;SDS011;65174;48.138;21.002;2024-01-30T09:58:39;22.93;;;12.73;;
76125;SDS011;65174;48.138;21.002;2024-01-30T10:01:42;26.38;;;13.05;;
76125;SDS011;65174;48.138;21.002;2024-01-30T10:04:44;21.85;;;11.57;;
76125;SDS011;65174;48.138;21.002;2024-01-30T10:07:50;26.83;;;13.77;;
76125;SDS011;65174;48.138;21.002;2024-01-30T10:10:52;21.92;;;10.98;;
76125;SDS011;65174;48.138;21.002;2024-01-30T10:13:54;27.10;;;13.20;;
76125;SDS011;65174;48.138;21.002;2024-01-30T10:16:57;25.05;;;14.45;;
76125;SDS011;65174;48.138;21.002;2024-01-30T10:19:59;22.23;;;13.43;;
76125;SDS011;65174;48.138;21.002;2024-01-30T10:23:01;32.35;;;16.55;;
76125;SDS011;65174;48.138;21.002;2024-01-30T10:26:07;25.77;;;15.55;;
76125;SDS011;65174;48.138;21.002;2024-01-30T10:29:09;36.33;;;16.47;;
76125;SDS011;65174;48.138;21.002;2024-01-30T10:32:11;20.75;;;11.40;;
76125;SDS011;65174;48.138;21.002;2024-01-30T10:35:12;26.90;;;12.98;;
76125;SDS011;65174;48.138;21.002;2024-01-30T10:38:15;29.48;;;15.65;;
76125;SDS011;65174;48.138;21.002;2024-01-30T10:41:17;18.67;;;10.32;;
76125;SDS011;65174;48.138;21.002;2024-01-30T10:44:21;29.03;;;15.30;;
76125;SDS011;65174;48.138;21.002;2024-01-30T10:47:27;19.42;;;10.00;;
76125;SDS011;65174;48.138;21.002;2024-01-30T10:50:30;25.42;;;11.98;;
76125;SDS011;65174;48.138;21.002;2024-01-30T10:53:32;28.38;;;15.23;;
76125;SDS011;65174;48.138;21.002;2024-01-30T10:56:34;34.13;;;15.23;;
76125;SDS011;65174;48.138;21.002;2024-01-30T10:59:37;32.60;;;12.90;;
76125;SDS011;65174;48.138;21.002;2024-01-30T11:02:42;14.93;;;8.18;;
76125;SDS011;65174;48.138;21.002;2024-01-30T11:05:48;30.73;;;15.82;;
76125;SDS011;65174;48.138;21.002;2024-01-30T11:09:00;17.35;;;10.00;;
76125;SDS011;65174;48.138;21.002;2024-01-30T11:12:02;36.85;;;18.42;;
76125;SDS011;65174;48.138;21.002;2024-01-30T11:18:07;32.00;;;15.88;;
76125;SDS011;65174;48.138;21.002;2024-01-30T11:21:09;15.02;;;8.93;;
76125;SDS011;65174;48.138;21.002;2024-01-30T11:24:15;35.83;;;18.52;;
76125;SDS011;65174;48.138;21.002;2024-01-30T11:27:17;33.72;;;16.70;;
76125;SDS011;65174;48.138;21.002;2024-01-30T11:30:23;32.00;;;18.87;;
76125;SDS011;65174;48.138;21.002;2024-01-30T11:33:28;40.92;;;19.15;;
76125;SDS011;65174;48.138;21.002;2024-01-30T11:36:35;32.45;;;15.00;;
76125;SDS011;65174;48.138;21.002;2024-01-30T11:39:42;25.88;;;15.48;;
76125;SDS011;65174;48.138;21.002;2024-01-30T11:42:44;34.50;;;17.15;;
76125;SDS011;65174;48.138;21.002;2024-01-30T11:45:47;29.83;;;17.00;;
76125;SDS011;65174;48.138;21.002;2024-01-30T11:48:49;31.67;;;15.02;;
76125;SDS011;65174;48.138;21.002;2024-01-30T11:51:51;32.97;;;16.92;;
76125;SDS011;65174;48.138;21.002;2024-01-30T11:54:55;27.38;;;14.30;;
76125;SDS011;65174;48.138;21.002;2024-01-30T11:57:57;41.65;;;17.95;;
76125;SDS011;65174;48.138;21.002;2024-01-30T12:00:59;29.63;;;15.30;;
76125;SDS011;65174;48.138;21.002;2024-01-30T12:04:01;31.88;;;17.50;;
76125;SDS011;65174;48.138;21.002;2024-01-30T12:07:05;42.42;;;17.25;;
76125;SDS011;65174;48.138;21.002;2024-01-30T12:10:08;33.97;;;17.20;;
76125;SDS011;65174;48.138;21.002;2024-01-30T12:13:11;34.20;;;17.35;;
76125;SDS011;65174;48.138;21.002;2024-01-30T12:16:13;31.70;;;16.20;;
76125;SDS011;65174;48.138;21.002;2024-01-30T12:19:22;32.05;;;17.35;;
76125;SDS011;65174;48.138;21.002;2024-01-30T12:22:25;40.38;;;19.38;;
76125;SDS011;65174;48.138;21.002;2024-01-30T12:25:27;34.55;;;18.95;;
76125;SDS011;65174;48.138;21.002;2024-01-30T12:28:29;36.00;;;18.75;;
76125;SDS011;65174;48.138;21.002;2024-01-30T12:31:32;37.00;;;18.83;;
76125;SDS011;65174;48.138;21.002;2024-01-30T12:34:39;39.65;;;19.88;;
76125;SDS011;65174;48.138;21.002;2024-01-30T12:38:00;41.15;;;19.27;;
76125;SDS011;65174;48.138;21.002;2024-01-30T12:41:02;35.67;;;19.08;;
76125;SDS011;65174;48.138;21.002;2024-01-30T12:44:03;37.53;;;19.15;;
76125;SDS011;65174;48.138;21.002;2024-01-30T12:47:06;36.43;;;19.00;;
76125;SDS011;65174;48.138;21.002;2024-01-30T12:50:08;42.75;;;20.65;;
76125;SDS011;65174;48.138;21.002;2024-01-30T12:53:10;37.53;;;21.48;;
76125;SDS011;65174;48.138;21.002;2024-01-30T12:56:12;41.70;;;20.52;;
76125;SDS011;65174;48.138;21.002;2024-01-30T12:59:13;40.95;;;22.67;;
76125;SDS011;65174;48.138;21.002;2024-01-30T13:02:15;43.63;;;21.50;;
76125;SDS011;65174;48.138;21.002;2024-01-30T13:05:17;38.67;;;19.98;;
76125;SDS011;65174;48.138;21.002;2024-01-30T13:08:20;45.15;;;19.67;;
76125;SDS011;65174;48.138;21.002;2024-01-30T13:11:22;38.70;;;19.63;;
76125;SDS011;65174;48.138;21.002;2024-01-30T13:14:24;35.50;;;19.23;;
76125;SDS011;65174;48.138;21.002;2024-01-30T13:17:26;34.37;;;18.40;;
76125;SDS011;65174;48.138;21.002;2024-01-30T13:20:28;34.38;;;17.92;;
76125;SDS011;65174;48.138;21.002;2024-01-30T13:23:30;38.25;;;19.05;;
76125;SDS011;65174;48.138;21.002;2024-01-30T13:26:32;26.90;;;15.02;;
76125;SDS011;65174;48.138;21.002;2024-01-30T13:29:34;30.00;;;16.40;;
76125;SDS011;65174;48.138;21.002;2024-01-30T13:32:36;33.03;;;15.80;;
76125;SDS011;65174;48.138;21.002;2024-01-30T13:35:39;21.05;;;12.15;;
76125;SDS011;65174;48.138;21.002;2024-01-30T13:38:40;28.17;;;14.88;;
76125;SDS011;65174;48.138;21.002;2024-01-30T13:41:42;29.17;;;16.70;;
76125;SDS011;65174;48.138;21.002;2024-01-30T13:44:44;24.48;;;13.40;;
76125;SDS011;65174;48.138;21.002;2024-01-30T13:47:46;20.40;;;11.50;;
76125;SDS011;65174;48.138;21.002;2024-01-30T13:50:49;23.90;;;12.82;;
76125;SDS011;65174;48.138;21.002;2024-01-30T13:53:51;22.13;;;11.43;;
76125;SDS011;65174;48.138;21.002;2024-01-30T13:56:54;27.33;;;12.48;;
76125;SDS011;65174;48.138;21.002;2024-01-30T13:59:56;24.23;;;11.98;;
76125;SDS011;65174;48.138;21.002;2024-01-30T14:02:58;21.47;;;11.87;;
76125;SDS011;65174;48.138;21.002;2024-01-30T14:06:01;26.73;;;13.65;;
76125;SDS011;65174;48.138;21.002;2024-01-30T14:09:03;22.13;;;11.95;;
76125;SDS011;65174;48.138;21.002;2024-01-30T14:12:09;23.88;;;11.55;;
76125;SDS011;65174;48.138;21.002;2024-01-30T14:15:11;21.20;;;10.77;;
76125;SDS011;65174;48.138;21.002;2024-01-30T14:18:28;27.60;;;12.87;;
76125;SDS011;65174;48.138;21.002;2024-01-30T14:21:30;24.13;;;11.35;;
76125;SDS011;65174;48.138;21.002;2024-01-30T14:24:31;21.73;;;11.02;;
76125;SDS011;65174;48.138;21.002;2024-01-30T14:27:34;20.95;;;10.18;;
76125;SDS011;65174;48.138;21.002;2024-01-30T14:30:36;19.63;;;9.60;;
76125;SDS011;65174;48.138;21.002;2024-01-30T14:33:38;20.20;;;10.00;;
76125;SDS011;65174;48.138;21.002;2024-01-30T14:36:41;22.98;;;10.85;;
76125;SDS011;65174;48.138;21.002;2024-01-30T14:39:43;16.38;;;9.00;;
76125;SDS011;65174;48.138;21.002;2024-01-30T14:42:48;19.30;;;9.50;;
76125;SDS011;65174;48.138;21.002;2024-01-30T14:45:51;19.75;;;9.70;;
76125;SDS011;65174;48.138;21.002;2024-01-30T14:48:54;17.07;;;9.33;;
76125;SDS011;65174;48.138;21.002;2024-01-30T14:51:56;22.35;;;10.23;;
76125;SDS011;65174;48.138;21.002;2024-01-30T14:55:00;24.10;;;10.75;;
76125;SDS011;65174;48.138;21.002;2024-01-30T14:58:02;29.25;;;12.38;;
76125;SDS011;65174;48.138;21.002;2024-01-30T15:01:04;23.35;;;11.15;;
76125;SDS011;65174;48.138;21.002;2024-01-30T15:04:07;20.27;;;10.20;;
76125;SDS011;65174;48.138;21.002;2024-01-30T15:07:08;22.10;;;10.60;;
76125;SDS011;65174;48.138;21.002;2024-01-30T15:10:12;21.63;;;11.38;;
76125;SDS011;65174;48.138;21.002;2024-01-30T15:13:15;19.23;;;10.48;;
76125;SDS011;65174;48.138;21.002;2024-01-30T15:16:17;22.80;;;10.95;;
76125;SDS011;65174;48.138;21.002;2024-01-30T15:19:19;20.37;;;10.93;;
76125;SDS011;65174;48.138;21.002;2024-01-30T15:22:21;26.33;;;11.25;;
76125;SDS011;65174;48.138;21.002;2024-01-30T15:25:23;25.90;;;13.52;;
76125;SDS011;65174;48.138;21.002;2024-01-30T15:28:34;27.35;;;12.52;;
76125;SDS011;65174;48.138;21.002;2024-01-30T15:31:38;22.10;;;12.40;;
76125;SDS011;65174;48.138;21.002;2024-01-30T15:34:40;20.13;;;11.47;;
76125;SDS011;65174;48.138;21.002;2024-01-30T15:37:42;24.98;;;13.05;;
76125;SDS011;65174;48.138;21.002;2024-01-30T15:40:44;26.60;;;13.45;;
76125;SDS011;65174;48.138;21.002;2024-01-30T15:43:45;24.85;;;13.63;;
76125;SDS011;65174;48.138;21.002;2024-01-30T15:46:47;28.63;;;13.57;;
76125;SDS011;65174;48.138;21.002;2024-01-30T15:49:49;25.60;;;13.80;;
76125;SDS011;65174;48.138;21.002;2024-01-30T15:52:51;28.40;;;13.70;;
76125;SDS011;65174;48.138;21.002;2024-01-30T15:55:53;30.55;;;13.88;;
76125;SDS011;65174;48.138;21.002;2024-01-30T15:58:55;30.13;;;14.63;;
76125;SDS011;65174;48.138;21.002;2024-01-30T16:01:58;29.52;;;15.05;;
76125;SDS011;65174;48.138;21.002;2024-01-30T16:05:00;31.37;;;14.13;;
76125;SDS011;65174;48.138;21.002;2024-01-30T16:08:04;35.90;;;14.88;;
76125;SDS011;65174;48.138;21.002;2024-01-30T16:11:06;26.67;;;15.68;;
76125;SDS011;65174;48.138;21.002;2024-01-30T16:14:09;28.60;;;14.45;;
76125;SDS011;65174;48.138;21.002;2024-01-30T16:17:11;33.25;;;16.88;;
76125;SDS011;65174;48.138;21.002;2024-01-30T16:20:13;31.60;;;15.70;;
76125;SDS011;65174;48.138;21.002;2024-01-30T16:23:18;26.60;;;12.98;;
76125;SDS011;65174;48.138;21.002;2024-01-30T16:26:20;29.08;;;14.07;;
76125;SDS011;65174;48.138;21.002;2024-01-30T16:29:22;29.00;;;13.57;;
76125;SDS011;65174;48.138;21.002;2024-01-30T16:32:24;31.05;;;13.50;;
76125;SDS011;65174;48.138;21.002;2024-01-30T16:35:26;28.00;;;13.50;;
76125;SDS011;65174;48.138;21.002;2024-01-30T17:48:48;33.57;;;17.30;;
76125;SDS011;65174;48.138;21.002;2024-01-30T17:51:51;37.50;;;18.42;;
76125;SDS011;65174;48.138;21.002;2024-01-30T17:54:53;36.03;;;18.95;;
76125;SDS011;65174;48.138;21.002;2024-01-30T17:57:57;40.90;;;18.20;;
76125;SDS011;65174;48.138;21.002;2024-01-30T18:00:59;34.13;;;17.90;;
76125;SDS011;65174;48.138;21.002;2024-01-30T18:04:02;35.13;;;17.33;;
76125;SDS011;65174;48.138;21.002;2024-01-30T18:07:04;41.95;;;18.58;;
76125;SDS011;65174;48.138;21.002;2024-01-30T18:10:07;39.30;;;19.02;;
76125;SDS011;65174;48.138;21.002;2024-01-30T18:13:09;34.28;;;17.38;;
76125;SDS011;65174;48.138;21.002;2024-01-30T18:16:15;34.30;;;18.45;;
76125;SDS011;65174;48.138;21.002;2024-01-30T18:19:18;34.33;;;17.57;;
76125;SDS011;65174;48.138;21.002;2024-01-30T18:22:20;33.80;;;17.92;;
76125;SDS011;65174;48.138;21.002;2024-01-30T18:25:22;39.92;;;20.55;;
76125;SDS011;65174;48.138;21.002;2024-01-30T18:28:24;40.33;;;19.08;;
76125;SDS011;65174;48.138;21.002;2024-01-30T18:31:26;38.30;;;18.75;;
76125;SDS011;65174;48.138;21.002;2024-01-30T18:34:28;45.17;;;20.80;;
76125;SDS011;65174;48.138;21.002;2024-01-30T18:37:30;47.40;;;21.60;;
76125;SDS011;65174;48.138;21.002;2024-01-30T18:40:33;42.28;;;20.75;;
76125;SDS011;65174;48.138;21.002;2024-01-30T18:43:35;43.13;;;20.42;;
76125;SDS011;65174;48.138;21.002;2024-01-30T18:46:38;45.20;;;21.17;;
76125;SDS011;65174;48.138;21.002;2024-01-30T18:49:40;40.90;;;19.47;;
76125;SDS011;65174;48.138;21.002;2024-01-30T18:52:43;40.58;;;20.42;;
76125;SDS011;65174;48.138;21.002;2024-01-30T18:55:46;38.70;;;20.02;;
76125;SDS011;65174;48.138;21.002;2024-01-30T18:58:49;38.80;;;18.83;;
76125;SDS011;65174;48.138;21.002;2024-01-30T19:01:51;39.05;;;19.38;;
76125;SDS011;65174;48.138;21.002;2024-01-30T19:04:53;36.83;;;17.80;;
76125;SDS011;65174;48.138;21.002;2024-01-30T19:07:56;36.60;;;18.63;;
76125;SDS011;65174;48.138;21.002;2024-01-30T19:10:58;40.78;;;19.85;;
76125;SDS011;65174;48.138;21.002;2024-01-30T19:14:00;44.63;;;21.90;;
76125;SDS011;65174;48.138;21.002;2024-01-30T19:17:02;54.47;;;26.40;;
76125;SDS011;65174;48.138;21.002;2024-01-30T19:20:05;46.30;;;22.90;;
76125;SDS011;65174;48.138;21.002;2024-01-30T19:23:11;34.53;;;18.65;;
76125;SDS011;65174;48.138;21.002;2024-01-30T19:26:14;34.90;;;18.17;;
76125;SDS011;65174;48.138;21.002;2024-01-30T19:29:16;39.25;;;19.52;;
76125;SDS011;65174;48.138;21.002;2024-01-30T19:32:18;43.55;;;20.38;;
76125;SDS011;65174;48.138;21.002;2024-01-30T19:35:20;40.07;;;21.37;;
76125;SDS011;65174;48.138;21.002;2024-01-30T19:38:22;45.15;;;21.77;;